createdAt,value
2023-05-05T00:00:37.837Z,4.05
2023-05-05T00:03:41.790Z,4.03
2023-05-05T00:06:44.840Z,4.07
2023-05-05T00:09:47.586Z,3.83
2023-05-05T00:12:50.461Z,4.22
2023-05-05T00:15:53.857Z,3.80
2023-05-05T00:18:56.600Z,3.90
2023-05-05T00:21:59.239Z,4.40
2023-05-05T00:25:01.951Z,4.03
2023-05-05T00:28:04.854Z,3.78
2023-05-05T00:31:07.620Z,4.20
2023-05-05T00:34:11.174Z,4.05
2023-05-05T00:37:14.829Z,3.70
2023-05-05T00:40:18.787Z,4.15
2023-05-05T00:43:21.472Z,3.78
2023-05-05T00:46:26.916Z,4.20
2023-05-05T00:49:30.078Z,4.47
2023-05-05T00:52:32.927Z,3.90
2023-05-05T00:55:36.689Z,3.78
2023-05-05T00:58:43.270Z,4.10
2023-05-05T01:01:46.786Z,4.05
2023-05-05T01:04:49.648Z,4.03
2023-05-05T01:08:20.490Z,3.90
2023-05-05T01:11:35.727Z,3.97
2023-05-05T01:14:47.284Z,3.90
2023-05-05T01:17:57.372Z,3.92
2023-05-05T01:21:14.600Z,4.10
2023-05-05T01:24:54.506Z,3.80
2023-05-05T01:28:53.675Z,3.97
2023-05-05T01:32:08.029Z,3.88
2023-05-05T01:35:17.139Z,4.00
2023-05-05T01:38:23.231Z,3.90
2023-05-05T01:41:31.002Z,3.60
2023-05-05T01:44:37.140Z,4.18
2023-05-05T01:47:41.512Z,3.80
2023-05-05T01:50:46.955Z,3.92
2023-05-05T01:53:52.680Z,3.78
2023-05-05T01:56:57.462Z,3.70
2023-05-05T02:00:01.942Z,4.00
2023-05-05T02:03:06.696Z,4.22
2023-05-05T02:06:11.433Z,3.88
2023-05-05T02:09:15.318Z,3.72
2023-05-05T02:12:20.079Z,3.80
2023-05-05T02:15:24.332Z,3.70
2023-05-05T02:18:28.547Z,3.60
2023-05-05T02:21:32.017Z,3.85
2023-05-05T02:24:34.951Z,4.03
2023-05-05T02:27:41.910Z,4.20
2023-05-05T02:30:46.360Z,3.90
2023-05-05T02:33:53.599Z,3.95
2023-05-05T02:37:03.439Z,3.65
2023-05-05T02:40:11.322Z,3.80
2023-05-05T02:43:18.368Z,3.80
2023-05-05T02:46:22.252Z,3.42
2023-05-05T02:49:25.107Z,4.00
2023-05-05T02:52:33.621Z,3.80
2023-05-05T02:55:54.979Z,3.65
2023-05-05T02:59:21.988Z,3.50
2023-05-05T03:02:32.365Z,3.63
2023-05-05T03:05:46.014Z,3.78
2023-05-05T03:08:48.737Z,3.95
2023-05-05T03:12:02.108Z,3.65
2023-05-05T03:15:09.420Z,3.63
2023-05-05T03:18:15.682Z,3.85
2023-05-05T03:21:22.588Z,3.70
2023-05-05T03:24:25.530Z,3.85
2023-05-05T03:27:35.988Z,3.60
2023-05-05T03:30:39.391Z,3.80
2023-05-05T03:33:42.316Z,3.50
2023-05-05T03:36:45.731Z,3.80
2023-05-05T03:39:50.838Z,3.47
2023-05-05T03:42:53.805Z,3.90
2023-05-05T03:45:56.556Z,3.50
2023-05-05T03:48:59.280Z,3.85
2023-05-05T03:52:03.178Z,3.38
2023-05-05T03:55:07.007Z,3.60
2023-05-05T03:58:09.913Z,3.63
2023-05-05T04:01:12.855Z,3.00
2023-05-05T04:04:16.592Z,3.63
2023-05-05T04:07:19.410Z,3.70
2023-05-05T04:10:22.055Z,3.60
2023-05-05T04:13:24.879Z,3.42
2023-05-05T04:16:27.694Z,3.87
2023-05-05T04:19:34.333Z,3.25
2023-05-05T04:22:38.752Z,3.50
2023-05-05T04:25:41.494Z,3.47
2023-05-05T04:28:45.520Z,3.70
2023-05-05T04:31:48.463Z,3.50
2023-05-05T04:34:52.013Z,3.30
2023-05-05T04:37:54.933Z,3.47
2023-05-05T04:40:57.895Z,3.38
2023-05-05T04:44:00.691Z,3.55
2023-05-05T04:47:04.264Z,3.33
2023-05-05T04:50:08.081Z,3.30
2023-05-05T04:53:11.289Z,3.38
2023-05-05T04:56:14.537Z,3.30
2023-05-05T04:59:17.643Z,3.65
2023-05-05T05:02:20.815Z,3.43
2023-05-05T05:05:25.414Z,3.50
2023-05-05T05:08:28.133Z,3.88
2023-05-05T05:11:32.496Z,3.78
2023-05-05T05:14:40.123Z,3.60
2023-05-05T05:17:43.178Z,3.53
2023-05-05T05:20:46.542Z,3.78
2023-05-05T05:23:49.984Z,3.65
2023-05-05T05:26:53.048Z,3.80
2023-05-05T05:29:56.274Z,3.47
2023-05-05T05:33:01.729Z,3.80
2023-05-05T05:36:05.859Z,3.58
2023-05-05T05:39:08.850Z,4.03
2023-05-05T05:42:12.179Z,4.03
2023-05-05T05:45:15.822Z,3.75
2023-05-05T05:48:18.837Z,4.00
2023-05-05T05:51:22.199Z,4.15
2023-05-05T05:54:25.504Z,4.35
2023-05-05T05:57:28.382Z,4.53
2023-05-05T06:00:32.310Z,4.70
2023-05-05T06:03:41.351Z,5.37
2023-05-05T06:06:44.727Z,6.35
2023-05-05T06:09:56.978Z,5.40
2023-05-05T06:13:00.146Z,4.80
2023-05-05T06:16:03.695Z,4.78
2023-05-05T06:19:10.747Z,5.20
2023-05-05T06:22:14.385Z,5.00
2023-05-05T06:25:18.383Z,5.32
2023-05-05T06:28:27.005Z,4.93
2023-05-05T06:31:30.522Z,5.28
2023-05-05T06:34:33.709Z,5.13
2023-05-05T06:37:39.796Z,4.70
2023-05-05T06:40:43.625Z,4.68
2023-05-05T06:43:49.720Z,4.45
2023-05-05T06:46:54.504Z,5.07
2023-05-05T06:49:57.422Z,4.57
2023-05-05T06:53:00.215Z,4.75
2023-05-05T06:56:04.218Z,5.10
2023-05-05T06:59:07.008Z,4.95
2023-05-05T07:02:09.982Z,4.85
2023-05-05T07:05:16.769Z,4.73
2023-05-05T07:08:19.669Z,4.85
2023-05-05T07:11:28.747Z,5.32
2023-05-05T07:14:34.780Z,5.10
2023-05-05T07:17:42.021Z,5.45
2023-05-05T07:20:47.454Z,5.00
2023-05-05T07:23:51.221Z,5.15
2023-05-05T07:27:00.066Z,4.85
2023-05-05T07:30:11.156Z,5.25
2023-05-05T07:33:15.939Z,5.22
2023-05-05T07:36:18.958Z,4.90
2023-05-05T07:39:21.749Z,5.18
2023-05-05T07:42:27.536Z,4.93
2023-05-05T07:45:31.618Z,5.15
2023-05-05T07:48:35.163Z,5.00
2023-05-05T07:51:38.150Z,5.07
2023-05-05T07:54:41.351Z,5.30
2023-05-05T07:57:43.995Z,5.38
2023-05-05T08:00:50.682Z,5.10
2023-05-05T08:03:53.954Z,5.28
2023-05-05T08:06:57.115Z,5.20
2023-05-05T08:09:59.807Z,5.20
2023-05-05T08:13:03.049Z,5.50
2023-05-05T08:16:06.299Z,5.20
2023-05-05T08:19:21.152Z,5.38
2023-05-05T08:22:35.249Z,5.73
2023-05-05T08:25:39.648Z,4.90
2023-05-05T08:28:45.130Z,5.82
2023-05-05T08:31:48.180Z,5.75
2023-05-05T08:34:51.985Z,5.60
2023-05-05T08:37:56.063Z,5.67
2023-05-05T08:41:01.891Z,5.78
2023-05-05T08:44:09.758Z,5.60
2023-05-05T08:47:24.295Z,5.45
2023-05-05T08:50:29.159Z,5.50
2023-05-05T08:53:56.030Z,6.10
2023-05-05T08:57:02.037Z,6.10
2023-05-05T09:00:09.910Z,5.82
2023-05-05T09:03:13.275Z,6.13
2023-05-05T09:06:17.465Z,5.75
2023-05-05T09:09:22.286Z,5.43
2023-05-05T09:12:25.700Z,5.93
2023-05-05T09:15:28.546Z,6.20
2023-05-05T09:18:31.404Z,6.18
2023-05-05T09:21:34.202Z,5.88
2023-05-05T09:24:37.092Z,6.23
2023-05-05T09:27:43.098Z,5.95
2023-05-05T09:30:47.008Z,6.63
2023-05-05T09:33:49.925Z,6.53
2023-05-05T09:36:55.061Z,6.03
2023-05-05T09:40:04.098Z,6.30
2023-05-05T09:43:12.184Z,6.30
2023-05-05T09:46:15.066Z,5.80
2023-05-05T09:49:23.608Z,6.57
2023-05-05T09:52:48.877Z,6.03
2023-05-05T09:55:59.325Z,5.97
2023-05-05T09:59:13.144Z,6.22
2023-05-05T10:02:16.317Z,6.10
2023-05-05T10:05:20.091Z,5.70
2023-05-05T10:08:34.384Z,5.60
2023-05-05T10:11:37.230Z,5.97
2023-05-05T10:14:42.972Z,6.03
2023-05-05T10:21:04.331Z,5.65
2023-05-05T10:24:23.681Z,6.60
2023-05-05T10:27:29.412Z,5.43
2023-05-05T10:30:43.529Z,5.72
2023-05-05T10:33:58.946Z,5.88
2023-05-05T10:37:01.923Z,5.68
2023-05-05T10:40:08.002Z,5.80
2023-05-05T10:43:11.178Z,6.03
2023-05-05T10:46:17.061Z,6.15
2023-05-05T10:49:46.857Z,5.75
2023-05-05T10:53:20.856Z,6.30
2023-05-05T10:56:30.348Z,5.55
2023-05-05T10:59:37.225Z,5.83
2023-05-05T11:02:53.317Z,6.35
2023-05-05T11:06:06.989Z,6.05
2023-05-05T11:09:51.645Z,6.38
2023-05-05T11:13:16.585Z,6.07
2023-05-05T11:16:51.717Z,6.00
2023-05-05T11:19:55.350Z,5.63
2023-05-05T11:23:07.005Z,6.07
2023-05-05T11:26:10.548Z,5.90
2023-05-05T11:29:13.171Z,6.00
2023-05-05T11:32:16.132Z,5.80
2023-05-05T11:35:19.560Z,5.70
2023-05-05T11:38:37.392Z,6.00
2023-05-05T11:42:28.120Z,5.97
2023-05-05T11:45:31.173Z,6.07
2023-05-05T11:48:46.387Z,5.47
2023-05-05T11:52:06.188Z,6.57
2023-05-05T11:55:09.358Z,6.68
2023-05-05T11:58:20.218Z,6.38
2023-05-05T12:01:23.202Z,6.47
2023-05-05T12:04:26.268Z,6.37
2023-05-05T12:07:31.452Z,5.93
2023-05-05T12:10:34.058Z,6.43
2023-05-05T12:13:37.274Z,6.40
2023-05-05T12:16:41.371Z,6.30
2023-05-05T12:19:55.136Z,6.73
2023-05-05T12:23:05.019Z,6.63
2023-05-05T12:26:08.149Z,7.70
2023-05-05T12:29:11.112Z,7.10
2023-05-05T12:32:31.131Z,7.15
2023-05-05T12:35:34.790Z,7.17
2023-05-05T12:38:38.105Z,7.00
2023-05-05T12:41:41.241Z,7.72
2023-05-05T12:44:45.048Z,6.93
2023-05-05T12:47:47.729Z,7.05
2023-05-05T12:50:50.471Z,6.87
2023-05-05T12:54:03.295Z,6.85
2023-05-05T12:57:11.982Z,7.10
2023-05-05T13:00:17.762Z,6.90
2023-05-05T13:03:21.301Z,7.15
2023-05-05T13:06:26.307Z,7.10
2023-05-05T13:09:34.096Z,6.85
2023-05-05T13:12:37.396Z,10.10
2023-05-05T13:15:40.052Z,8.32
2023-05-05T13:18:48.714Z,8.57
2023-05-05T13:21:58.635Z,7.43
2023-05-05T13:25:01.436Z,7.80
2023-05-05T13:28:05.912Z,8.18
2023-05-05T13:31:09.046Z,6.90
2023-05-05T13:34:12.187Z,7.53
2023-05-05T13:37:14.954Z,7.30
2023-05-05T13:40:18.952Z,7.57
2023-05-05T13:43:21.796Z,7.43
2023-05-05T13:46:24.592Z,7.53
2023-05-05T13:49:27.243Z,7.53
2023-05-05T13:52:32.107Z,7.00
2023-05-05T13:55:36.664Z,7.18
2023-05-05T13:58:39.280Z,7.15
2023-05-05T14:01:42.199Z,7.15
2023-05-05T14:04:44.975Z,7.45
2023-05-05T14:07:47.908Z,6.30
2023-05-05T14:10:52.072Z,7.22
2023-05-05T14:13:55.237Z,7.18
2023-05-05T14:16:57.994Z,6.30
2023-05-05T14:20:00.731Z,7.22
2023-05-05T14:23:03.482Z,6.73
2023-05-05T14:26:06.062Z,7.15
2023-05-05T14:29:19.297Z,6.95
2023-05-05T14:32:23.170Z,7.18
2023-05-05T14:35:25.871Z,6.90
2023-05-05T14:38:28.422Z,6.17
2023-05-05T14:41:31.220Z,6.68
2023-05-05T14:44:33.952Z,6.78
2023-05-05T14:47:36.581Z,7.18
2023-05-05T14:50:40.828Z,6.90
2023-05-05T14:53:43.589Z,6.33
2023-05-05T14:56:46.395Z,6.03
2023-05-05T14:59:52.106Z,7.05
2023-05-05T15:02:54.850Z,6.32
2023-05-05T15:05:57.918Z,6.97
2023-05-05T15:09:00.551Z,7.37
2023-05-05T15:12:03.272Z,6.80
2023-05-05T15:15:08.777Z,6.72
2023-05-05T15:18:12.211Z,5.95
2023-05-05T15:21:14.817Z,6.40
2023-05-05T15:24:17.694Z,6.23
2023-05-05T15:27:20.319Z,6.13
2023-05-05T15:30:23.021Z,6.55
2023-05-05T15:33:26.188Z,6.72
2023-05-05T15:36:28.837Z,6.28
2023-05-05T15:39:31.402Z,6.33
2023-05-05T15:42:34.602Z,5.70
2023-05-05T15:45:39.550Z,6.90
2023-05-05T15:48:42.175Z,5.97
2023-05-05T15:51:45.016Z,6.05
2023-05-05T15:54:47.715Z,5.90
2023-05-05T15:57:50.239Z,6.00
2023-05-05T16:00:52.950Z,5.80
2023-05-05T16:03:55.815Z,6.28
2023-05-05T16:06:59.282Z,6.22
2023-05-05T16:10:02.194Z,5.60
2023-05-05T16:13:04.860Z,5.82
2023-05-05T16:16:07.519Z,6.00
2023-05-05T16:19:10.115Z,5.85
2023-05-05T16:22:13.344Z,5.90
2023-05-05T16:25:18.648Z,5.53
2023-05-05T16:28:21.440Z,5.75
2023-05-05T16:31:24.057Z,6.32
2023-05-05T16:34:27.059Z,5.60
2023-05-05T16:37:29.621Z,5.75
2023-05-05T16:40:32.400Z,5.40
2023-05-05T16:43:37.289Z,6.20
2023-05-05T16:46:40.224Z,6.28
2023-05-05T16:49:42.828Z,5.78
2023-05-05T16:52:45.604Z,5.63
2023-05-05T16:55:51.334Z,5.77
2023-05-05T16:58:53.916Z,5.88
2023-05-05T17:01:57.318Z,5.70
2023-05-05T17:05:00.012Z,5.65
2023-05-05T17:08:03.234Z,6.00
2023-05-05T17:11:06.011Z,5.83
2023-05-05T17:14:09.415Z,5.57
2023-05-05T17:17:12.386Z,6.32
2023-05-05T17:20:14.987Z,5.68
2023-05-05T17:23:17.724Z,6.20
2023-05-05T17:26:20.485Z,5.83
2023-05-05T17:29:23.443Z,5.38
2023-05-05T17:32:26.090Z,5.70
2023-05-05T17:35:29.810Z,6.05
2023-05-05T17:38:32.440Z,5.97
2023-05-05T17:41:35.209Z,6.70
2023-05-05T17:44:37.889Z,6.50
2023-05-05T17:47:40.499Z,6.80
2023-05-05T17:50:43.614Z,6.55
2023-05-05T17:53:46.420Z,6.93
2023-05-05T17:56:49.012Z,7.07
2023-05-05T17:59:53.530Z,6.72
2023-05-05T18:02:56.304Z,7.05
2023-05-05T18:05:58.914Z,6.88
2023-05-05T18:09:01.677Z,8.00
2023-05-05T18:12:04.684Z,7.17
2023-05-05T18:15:07.891Z,7.70
2023-05-05T18:18:10.809Z,7.50
2023-05-05T18:21:14.244Z,7.85
2023-05-05T18:24:20.375Z,7.25
2023-05-05T18:27:23.520Z,7.00
2023-05-05T18:30:26.154Z,7.13
2023-05-05T18:33:28.763Z,7.40
2023-05-05T18:36:31.575Z,7.30
2023-05-05T18:39:34.280Z,7.28
2023-05-05T18:42:37.176Z,7.67
2023-05-05T18:45:40.000Z,7.50
2023-05-05T18:48:42.920Z,7.15
2023-05-05T18:51:45.615Z,6.95
2023-05-05T18:54:48.295Z,6.95
2023-05-05T18:57:50.934Z,7.97
2023-05-05T19:00:54.030Z,7.25
2023-05-05T19:03:56.851Z,7.32
2023-05-05T19:06:59.910Z,7.30
2023-05-05T19:10:04.649Z,7.25
2023-05-05T19:13:08.252Z,6.73
2023-05-05T19:16:11.977Z,6.82
2023-05-05T19:19:14.942Z,6.78
2023-05-05T19:22:18.322Z,6.70
2023-05-05T19:25:21.166Z,6.75
2023-05-05T19:28:23.859Z,6.80
2023-05-05T19:31:27.856Z,6.70
2023-05-05T19:34:30.845Z,7.07
2023-05-05T19:37:34.020Z,6.88
2023-05-05T19:40:38.290Z,6.90
2023-05-05T19:43:40.888Z,6.77
2023-05-05T19:46:43.513Z,6.72
2023-05-05T19:49:46.706Z,7.00
2023-05-05T19:52:49.388Z,6.55
2023-05-05T19:55:52.272Z,6.63
2023-05-05T19:59:00.567Z,6.93
2023-05-05T20:02:03.432Z,8.00
2023-05-05T20:05:06.616Z,7.88
2023-05-05T20:08:09.221Z,7.70
2023-05-05T20:11:12.269Z,6.88
2023-05-05T20:14:14.926Z,7.00
2023-05-05T20:17:20.274Z,7.13
2023-05-05T20:20:23.070Z,7.03
2023-05-05T20:23:26.606Z,7.07
2023-05-05T20:26:29.425Z,7.28
2023-05-05T20:29:32.081Z,7.60
2023-05-05T20:32:34.604Z,7.45
2023-05-05T20:35:37.174Z,7.70
2023-05-05T20:38:39.880Z,8.10
2023-05-05T20:41:42.741Z,7.70
2023-05-05T20:44:46.194Z,7.77
2023-05-05T20:47:49.061Z,7.80
2023-05-05T20:50:52.253Z,7.97
2023-05-05T20:53:54.955Z,8.00
2023-05-05T20:56:58.258Z,8.30
2023-05-05T21:00:00.852Z,8.10
2023-05-05T21:03:04.416Z,8.00
2023-05-05T21:06:07.248Z,8.43
2023-05-05T21:09:09.896Z,8.77
2023-05-05T21:12:12.489Z,9.75
2023-05-05T21:15:16.783Z,8.50
2023-05-05T21:18:19.633Z,8.45
2023-05-05T21:21:23.913Z,7.85
2023-05-05T21:24:28.133Z,8.13
2023-05-05T21:27:30.777Z,8.20
2023-05-05T21:30:33.382Z,9.07
2023-05-05T21:33:36.196Z,8.90
2023-05-05T21:36:38.964Z,8.95
2023-05-05T21:39:41.785Z,10.05
2023-05-05T21:42:44.406Z,9.10
2023-05-05T21:45:47.129Z,11.20
2023-05-05T21:48:49.719Z,12.75
2023-05-05T21:51:52.300Z,12.88
2023-05-05T21:54:54.820Z,13.65
2023-05-05T21:57:57.390Z,13.50
2023-05-05T22:01:00.282Z,12.73
2023-05-05T22:04:03.009Z,14.15
2023-05-05T22:07:05.957Z,15.77
2023-05-05T22:10:09.291Z,16.35
2023-05-05T22:13:12.354Z,17.58
2023-05-05T22:16:17.669Z,19.03
2023-05-05T22:19:20.361Z,18.63
2023-05-05T22:22:23.052Z,18.42
2023-05-05T22:25:25.672Z,17.02
2023-05-05T22:28:28.351Z,16.88
2023-05-05T22:31:31.121Z,16.77
2023-05-05T22:34:35.261Z,17.98
2023-05-05T22:37:37.809Z,18.98
2023-05-05T22:40:40.882Z,18.30
2023-05-05T22:43:43.573Z,18.85
2023-05-05T22:46:46.323Z,17.83
2023-05-05T22:49:49.077Z,17.98
2023-05-05T22:52:51.719Z,17.58
2023-05-05T22:55:54.311Z,17.52
2023-05-05T22:58:57.240Z,17.33
2023-05-05T23:02:00.258Z,17.47
2023-05-05T23:05:03.128Z,17.45
2023-05-05T23:08:06.122Z,16.52
2023-05-05T23:11:08.652Z,16.02
2023-05-05T23:14:11.210Z,15.98
2023-05-05T23:17:13.971Z,16.93
2023-05-05T23:20:16.654Z,18.67
2023-05-05T23:23:19.233Z,19.15
2023-05-05T23:26:21.985Z,17.15
2023-05-05T23:29:24.656Z,15.77
2023-05-05T23:32:27.313Z,15.40
2023-05-05T23:35:30.584Z,15.43
2023-05-05T23:38:33.230Z,16.23
2023-05-05T23:41:36.257Z,17.70
2023-05-05T23:44:38.816Z,16.00
2023-05-05T23:47:41.634Z,15.80
2023-05-05T23:50:44.355Z,15.52
2023-05-05T23:53:47.087Z,16.08
2023-05-05T23:56:49.773Z,15.65
2023-05-05T23:59:52.311Z,16.20
